DECAM EDDE-EDDC
Flight info
| Callsign | DECAM |
|---|---|
| Flight time | N/A |
| Altitude | |
| Route | |
| Aircraft | SR22 |
Departure
| Time | N/A |
|---|---|
| Airport | Erfurt-Weimar Airport (EDDE) |
Arrival
| Time | 2026-04-28 13:23 |
|---|---|
| Airport | Dresden Airport (EDDC) |
| Time | Latitude | Longitude | Altitude | Speed | Heading |
|---|---|---|---|---|---|
| 2026-04-28 12:48 | 51.52890 | 12.19208 | 1905 ft | 146 kts | 358° |
| 2026-04-28 12:48 | 51.53910 | 12.18980 | 1923 ft | 151 kts | 356° |
| 2026-04-28 12:48 | 51.54954 | 12.18664 | 1910 ft | 152 kts | 354° |
| 2026-04-28 12:48 | 51.55991 | 12.18670 | 1904 ft | 149 kts | 18° |
| 2026-04-28 12:49 | 51.56623 | 12.19043 | 2091 ft | 145 kts | 27° |
| 2026-04-28 12:49 | 51.57546 | 12.19765 | 2142 ft | 149 kts | 32° |
| 2026-04-28 12:49 | 51.58279 | 12.20823 | 2444 ft | 140 kts | 52° |
| 2026-04-28 12:49 | 51.58938 | 12.22664 | 2694 ft | 145 kts | 64° |
| 2026-04-28 12:50 | 51.59224 | 12.24234 | 2831 ft | 148 kts | 77° |
| 2026-04-28 12:50 | 51.59359 | 12.25332 | 2946 ft | 148 kts | 75° |
| 2026-04-28 12:50 | 51.59596 | 12.26950 | 3138 ft | 150 kts | 76° |
| 2026-04-28 12:50 | 51.59769 | 12.28600 | 3242 ft | 150 kts | 77° |
| 2026-04-28 12:51 | 51.59981 | 12.30257 | 3334 ft | 156 kts | 75° |
| 2026-04-28 12:51 | 51.60214 | 12.31999 | 3289 ft | 160 kts | 75° |
| 2026-04-28 12:51 | 51.60453 | 12.33749 | 3282 ft | 161 kts | 75° |
| 2026-04-28 12:51 | 51.60692 | 12.35527 | 3279 ft | 162 kts | 76° |
| 2026-04-28 12:52 | 51.60932 | 12.37273 | 3279 ft | 163 kts | 75° |
| 2026-04-28 12:52 | 51.61181 | 12.39053 | 3279 ft | 163 kts | 76° |
| 2026-04-28 12:52 | 51.61438 | 12.40843 | 3278 ft | 164 kts | 75° |
| 2026-04-28 12:52 | 51.61676 | 12.42646 | 3284 ft | 166 kts | 76° |
| 2026-04-28 12:53 | 51.61912 | 12.44462 | 3279 ft | 165 kts | 75° |
| 2026-04-28 12:53 | 51.62176 | 12.46258 | 3276 ft | 165 kts | 75° |
| 2026-04-28 12:53 | 51.62426 | 12.48058 | 3280 ft | 167 kts | 76° |
| 2026-04-28 12:53 | 51.62675 | 12.49869 | 3245 ft | 164 kts | 75° |
| 2026-04-28 12:54 | 51.62918 | 12.51637 | 3223 ft | 164 kts | 75° |
| 2026-04-28 12:54 | 51.63165 | 12.53431 | 3184 ft | 165 kts | 75° |
| 2026-04-28 12:54 | 51.63412 | 12.55232 | 3141 ft | 164 kts | 75° |
| 2026-04-28 12:54 | 51.63640 | 12.57032 | 3218 ft | 163 kts | 76° |
| 2026-04-28 12:55 | 51.63882 | 12.58817 | 3219 ft | 164 kts | 75° |
| 2026-04-28 12:55 | 51.64133 | 12.60605 | 3243 ft | 164 kts | 75° |
| 2026-04-28 12:55 | 51.64378 | 12.62394 | 3269 ft | 164 kts | 75° |
| 2026-04-28 12:55 | 51.64615 | 12.64184 | 3368 ft | 161 kts | 76° |
| 2026-04-28 12:56 | 51.64838 | 12.65882 | 3623 ft | 150 kts | 75° |
| 2026-04-28 12:56 | 51.65056 | 12.67492 | 3868 ft | 145 kts | 75° |
| 2026-04-28 12:56 | 51.65269 | 12.69054 | 4116 ft | 143 kts | 76° |
| 2026-04-28 12:56 | 51.65488 | 12.70581 | 4367 ft | 141 kts | 75° |
| 2026-04-28 12:57 | 51.65712 | 12.72114 | 4627 ft | 141 kts | 75° |
| 2026-04-28 12:57 | 51.65946 | 12.73652 | 4888 ft | 141 kts | 75° |
| 2026-04-28 12:57 | 51.65952 | 12.75247 | 4973 ft | 153 kts | 109° |
| 2026-04-28 12:57 | 51.65180 | 12.76489 | 4971 ft | 169 kts | 150° |
| 2026-04-28 12:58 | 51.64062 | 12.77185 | 4983 ft | 173 kts | 150° |
| 2026-04-28 12:58 | 51.63055 | 12.78227 | 4979 ft | 172 kts | 134° |
| 2026-04-28 12:58 | 51.62258 | 12.79667 | 4982 ft | 173 kts | 126° |
| 2026-04-28 12:58 | 51.61518 | 12.81194 | 4988 ft | 175 kts | 125° |
| 2026-04-28 12:59 | 51.60768 | 12.82727 | 4988 ft | 175 kts | 124° |
| 2026-04-28 12:59 | 51.60011 | 12.84262 | 4966 ft | 174 kts | 124° |
| 2026-04-28 12:59 | 51.59274 | 12.85752 | 4967 ft | 171 kts | 124° |
| 2026-04-28 12:59 | 51.58534 | 12.87247 | 4966 ft | 170 kts | 124° |
| 2026-04-28 13:00 | 51.57794 | 12.88742 | 4983 ft | 172 kts | 126° |
| 2026-04-28 13:00 | 51.57039 | 12.90249 | 4967 ft | 172 kts | 124° |
| 2026-04-28 13:00 | 51.56301 | 12.91750 | 4966 ft | 170 kts | 124° |
| 2026-04-28 13:00 | 51.55565 | 12.93262 | 5000 ft | 170 kts | 125° |
| 2026-04-28 13:01 | 51.54866 | 12.94649 | 5398 ft | 154 kts | 126° |
| 2026-04-28 13:01 | 51.54214 | 12.95943 | 5763 ft | 145 kts | 124° |
| 2026-04-28 13:01 | 51.53623 | 12.97183 | 6107 ft | 137 kts | 122° |
| 2026-04-28 13:01 | 51.53037 | 12.98362 | 6429 ft | 135 kts | 122° |
| 2026-04-28 13:02 | 51.52439 | 12.99568 | 6685 ft | 143 kts | 123° |
| 2026-04-28 13:02 | 51.51810 | 13.00820 | 6925 ft | 146 kts | 126° |
| 2026-04-28 13:02 | 51.51141 | 13.02142 | 6974 ft | 159 kts | 123° |
| 2026-04-28 13:02 | 51.50437 | 13.03596 | 6988 ft | 169 kts | 124° |
| 2026-04-28 13:03 | 51.49691 | 13.05067 | 6978 ft | 173 kts | 126° |
| 2026-04-28 13:03 | 51.48929 | 13.06606 | 6976 ft | 180 kts | 124° |
| 2026-04-28 13:03 | 51.48147 | 13.08165 | 6972 ft | 179 kts | 127° |
| 2026-04-28 13:03 | 51.47364 | 13.09715 | 6963 ft | 181 kts | 125° |
| 2026-04-28 13:04 | 51.46581 | 13.11291 | 6979 ft | 181 kts | 124° |
| 2026-04-28 13:04 | 51.45787 | 13.12863 | 6966 ft | 182 kts | 126° |
| 2026-04-28 13:04 | 51.44996 | 13.14430 | 6982 ft | 181 kts | 123° |
| 2026-04-28 13:04 | 51.44215 | 13.16035 | 6965 ft | 182 kts | 125° |
| 2026-04-28 13:05 | 51.43429 | 13.17612 | 6964 ft | 181 kts | 126° |
| 2026-04-28 13:05 | 51.42644 | 13.19170 | 6975 ft | 180 kts | 127° |
| 2026-04-28 13:05 | 51.41852 | 13.20730 | 6963 ft | 183 kts | 124° |
| 2026-04-28 13:05 | 51.41057 | 13.22316 | 6957 ft | 181 kts | 124° |
| 2026-04-28 13:06 | 51.40270 | 13.23914 | 6969 ft | 184 kts | 124° |
| 2026-04-28 13:06 | 51.39461 | 13.25525 | 6963 ft | 185 kts | 125° |
| 2026-04-28 13:06 | 51.38641 | 13.27094 | 6965 ft | 185 kts | 128° |
| 2026-04-28 13:06 | 51.37837 | 13.28709 | 6973 ft | 185 kts | 124° |
| 2026-04-28 13:07 | 51.37056 | 13.30351 | 6963 ft | 184 kts | 125° |
| 2026-04-28 13:07 | 51.36259 | 13.31916 | 6980 ft | 183 kts | 127° |
| 2026-04-28 13:07 | 51.35435 | 13.33510 | 6955 ft | 186 kts | 124° |
| 2026-04-28 13:07 | 51.34635 | 13.35097 | 6957 ft | 181 kts | 126° |
| 2026-04-28 13:08 | 51.33837 | 13.36669 | 6958 ft | 183 kts | 124° |
| 2026-04-28 13:08 | 51.33044 | 13.38265 | 6963 ft | 183 kts | 123° |
| 2026-04-28 13:08 | 51.32246 | 13.39862 | 6969 ft | 184 kts | 127° |
| 2026-04-28 13:08 | 51.31417 | 13.41454 | 6952 ft | 186 kts | 125° |
| 2026-04-28 13:09 | 51.30613 | 13.43063 | 6966 ft | 185 kts | 126° |
| 2026-04-28 13:09 | 51.29816 | 13.44633 | 6959 ft | 182 kts | 125° |
| 2026-04-28 13:09 | 51.29010 | 13.46230 | 6959 ft | 183 kts | 126° |
| 2026-04-28 13:09 | 51.28211 | 13.47807 | 6968 ft | 186 kts | 127° |
| 2026-04-28 13:10 | 51.27403 | 13.49432 | 6932 ft | 187 kts | 123° |
| 2026-04-28 13:10 | 51.26595 | 13.51035 | 6857 ft | 183 kts | 127° |
| 2026-04-28 13:10 | 51.25759 | 13.52597 | 6525 ft | 187 kts | 127° |
| 2026-04-28 13:10 | 51.25008 | 13.54271 | 6267 ft | 183 kts | 111° |
| 2026-04-28 13:11 | 51.24924 | 13.56223 | 5907 ft | 178 kts | 72° |
| 2026-04-28 13:11 | 51.25577 | 13.57863 | 5635 ft | 174 kts | 49° |
| 2026-04-28 13:11 | 51.26502 | 13.58991 | 5482 ft | 171 kts | 23° |
| 2026-04-28 13:11 | 51.27657 | 13.59402 | 5239 ft | 171 kts | 9° |
| 2026-04-28 13:12 | 51.28808 | 13.58910 | 4914 ft | 181 kts | 330° |
| 2026-04-28 13:12 | 51.29535 | 13.57241 | 4665 ft | 191 kts | 290° |
| 2026-04-28 13:12 | 51.29464 | 13.55129 | 4322 ft | 196 kts | 249° |
| 2026-04-28 13:12 | 51.28606 | 13.53509 | 4035 ft | 191 kts | 214° |
| 2026-04-28 13:13 | 51.27491 | 13.52336 | 3648 ft | 194 kts | 211° |
| 2026-04-28 13:13 | 51.26364 | 13.51156 | 3486 ft | 190 kts | 211° |
| 2026-04-28 13:13 | 51.25266 | 13.50015 | 3129 ft | 191 kts | 211° |
| 2026-04-28 13:13 | 51.24099 | 13.49025 | 2756 ft | 190 kts | 192° |
| 2026-04-28 13:14 | 51.22855 | 13.49178 | 2487 ft | 177 kts | 152° |
| 2026-04-28 13:14 | 51.21913 | 13.50401 | 2285 ft | 173 kts | 129° |
| 2026-04-28 13:14 | 51.21071 | 13.51689 | 2248 ft | 165 kts | 130° |
| 2026-04-28 13:14 | 51.20377 | 13.53091 | 2229 ft | 157 kts | 112° |
| 2026-04-28 13:15 | 51.19956 | 13.54639 | 2165 ft | 151 kts | 100° |
| 2026-04-28 13:15 | 51.19728 | 13.56250 | 2190 ft | 147 kts | 98° |
| 2026-04-28 13:15 | 51.19546 | 13.57837 | 2192 ft | 146 kts | 96° |
| 2026-04-28 13:15 | 51.19422 | 13.59427 | 2184 ft | 142 kts | 91° |
| 2026-04-28 13:16 | 51.19334 | 13.60988 | 2216 ft | 141 kts | 90° |
| 2026-04-28 13:16 | 51.19175 | 13.62507 | 2409 ft | 138 kts | 100° |
| 2026-04-28 13:16 | 51.18780 | 13.63901 | 2433 ft | 144 kts | 110° |
| 2026-04-28 13:16 | 51.18365 | 13.65411 | 2268 ft | 152 kts | 108° |
| 2026-04-28 13:17 | 51.17941 | 13.66975 | 2169 ft | 153 kts | 109° |
| 2026-04-28 13:17 | 51.17495 | 13.68515 | 2104 ft | 152 kts | 112° |
| 2026-04-28 13:17 | 51.17040 | 13.70015 | 2076 ft | 149 kts | 112° |
| 2026-04-28 13:17 | 51.16521 | 13.71447 | 2088 ft | 148 kts | 116° |
| 2026-04-28 13:18 | 51.15868 | 13.72732 | 2133 ft | 152 kts | 129° |
| 2026-04-28 13:18 | 51.15080 | 13.73879 | 2083 ft | 153 kts | 135° |
| 2026-04-28 13:18 | 51.14263 | 13.74970 | 1922 ft | 148 kts | 117° |
| 2026-04-28 13:18 | 51.14462 | 13.76275 | 1908 ft | 131 kts | 28° |
| 2026-04-28 13:19 | 51.15263 | 13.75706 | 1563 ft | 159 kts | 297° |
| 2026-04-28 13:19 | 51.14913 | 13.74191 | 1624 ft | 152 kts | 214° |
| 2026-04-28 13:19 | 51.14055 | 13.73236 | 1615 ft | 147 kts | 213° |
| 2026-04-28 13:19 | 51.13260 | 13.72406 | 1762 ft | 129 kts | 210° |
| 2026-04-28 13:20 | 51.12510 | 13.71697 | 1768 ft | 125 kts | 206° |
| 2026-04-28 13:20 | 51.11727 | 13.71124 | 1835 ft | 122 kts | 196° |
| 2026-04-28 13:20 | 51.10942 | 13.70598 | 1863 ft | 122 kts | 200° |
| 2026-04-28 13:20 | 51.10162 | 13.70314 | 1788 ft | 114 kts | 144° |
| 2026-04-28 13:21 | 51.09978 | 13.71261 | 1821 ft | 93 kts | 71° |
| 2026-04-28 13:21 | 51.10257 | 13.72248 | 1644 ft | 102 kts | 55° |
| 2026-04-28 13:21 | 51.10749 | 13.73071 | 1414 ft | 105 kts | 40° |
| 2026-04-28 13:21 | 51.11249 | 13.73753 | 1260 ft | 88 kts | 46° |
| 2026-04-28 13:22 | 51.11697 | 13.74377 | 1053 ft | 86 kts | 43° |
| 2026-04-28 13:22 | 51.12129 | 13.74989 | 918 ft | 79 kts | 42° |
| 2026-04-28 13:22 | 51.12530 | 13.75536 | 790 ft | 75 kts | 45° |
| 2026-04-28 13:22 | 51.12896 | 13.76076 | 746 ft | 62 kts | 43° |
| 2026-04-28 13:23 | 51.13169 | 13.76419 | 744 ft | 39 kts | 46° |
| 2026-04-28 13:23 | 51.13347 | 13.76680 | 735 ft | 26 kts | 38° |
| 2026-04-28 13:23 | 51.13328 | 13.76824 | 732 ft | 17 kts | 134° |
| 2026-04-28 13:23 | 51.13245 | 13.76962 | 730 ft | 15 kts | 149° |
| 2026-04-28 13:24 | 51.13145 | 13.76883 | 737 ft | 20 kts | 224° |
| 2026-04-28 13:24 | 51.13026 | 13.76714 | 741 ft | 26 kts | 220° |
| 2026-04-28 13:24 | 51.12880 | 13.76512 | 743 ft | 30 kts | 222° |
| 2026-04-28 13:24 | 51.12712 | 13.76277 | 746 ft | 34 kts | 220° |
| 2026-04-28 13:25 | 51.12563 | 13.76077 | 751 ft | 28 kts | 220° |
| 2026-04-28 13:25 | 51.12444 | 13.75914 | 758 ft | 15 kts | 220° |
| 2026-04-28 13:25 | 51.12412 | 13.75970 | 758 ft | 11 kts | 129° |
| 2026-04-28 13:25 | 51.12349 | 13.76023 | 757 ft | 14 kts | 225° |
| 2026-04-28 13:26 | 51.12313 | 13.75921 | 758 ft | 13 kts | 319° |
| 2026-04-28 13:26 | 51.12332 | 13.75888 | 759 ft | 0 kts | 315° |